createdAt,value
2017-03-01T00:00:29.846Z,984.69
2017-03-01T00:01:29.861Z,984.68
2017-03-01T00:02:29.875Z,984.76
2017-03-01T00:03:29.889Z,984.81
2017-03-01T00:04:29.905Z,984.83
2017-03-01T00:05:29.920Z,984.85
2017-03-01T00:06:29.937Z,984.98
2017-03-01T00:07:29.951Z,984.88
2017-03-01T00:08:29.967Z,984.99
2017-03-01T00:09:29.980Z,984.97
2017-03-01T00:10:29.995Z,985.05
2017-03-01T00:11:30.010Z,985.09
2017-03-01T00:12:30.026Z,985.07
2017-03-01T00:13:30.040Z,985.15
2017-03-01T00:14:30.055Z,985.11
2017-03-01T00:15:30.070Z,985.14
2017-03-01T00:16:30.083Z,985.17
2017-03-01T00:17:30.101Z,985.16
2017-03-01T00:18:30.114Z,985.17
2017-03-01T00:19:30.129Z,985.2
2017-03-01T00:20:30.144Z,985.29
2017-03-01T00:21:30.159Z,985.33
2017-03-01T00:22:30.173Z,985.34
2017-03-01T00:23:30.193Z,985.4
2017-03-01T00:24:30.203Z,985.35
2017-03-01T00:25:30.217Z,985.37
2017-03-01T00:26:30.232Z,985.41
2017-03-01T00:27:30.246Z,985.37
2017-03-01T00:28:30.261Z,985.43
2017-03-01T00:29:30.277Z,985.43
2017-03-01T00:30:30.291Z,985.49
2017-03-01T00:31:30.306Z,985.49
2017-03-01T00:32:30.320Z,985.53
2017-03-01T00:33:30.336Z,985.5
2017-03-01T00:34:30.352Z,985.53
2017-03-01T00:35:30.364Z,985.61
2017-03-01T00:36:30.380Z,985.71
2017-03-01T00:37:30.395Z,985.74
2017-03-01T00:38:30.409Z,985.72
2017-03-01T00:39:30.424Z,985.66
2017-03-01T00:40:30.439Z,985.67
2017-03-01T00:41:30.452Z,985.71
2017-03-01T00:42:30.468Z,985.69
2017-03-01T00:43:30.481Z,985.68
2017-03-01T00:44:30.498Z,985.76
2017-03-01T00:45:30.512Z,985.74
2017-03-01T00:46:30.527Z,985.71
2017-03-01T00:47:30.542Z,985.78
2017-03-01T00:48:30.556Z,985.79
2017-03-01T00:49:30.571Z,985.75
2017-03-01T00:50:30.584Z,985.71
2017-03-01T00:51:30.600Z,985.8
2017-03-01T00:52:30.614Z,985.82
2017-03-01T00:53:30.629Z,985.85
2017-03-01T00:54:30.643Z,985.87
2017-03-01T00:55:30.659Z,985.85
2017-03-01T00:56:30.673Z,985.91
2017-03-01T00:57:30.686Z,985.91
2017-03-01T00:58:30.702Z,985.88
2017-03-01T00:59:30.716Z,985.88
2017-03-01T01:00:30.731Z,985.92
2017-03-01T01:01:30.746Z,985.89
2017-03-01T01:02:30.759Z,985.9
2017-03-01T01:03:30.774Z,985.92
2017-03-01T01:04:30.789Z,985.92
2017-03-01T01:05:30.804Z,985.95
2017-03-01T01:06:30.818Z,985.97
2017-03-01T01:07:30.833Z,985.95
2017-03-01T01:08:30.846Z,985.95
2017-03-01T01:09:30.861Z,986.06
2017-03-01T01:10:30.875Z,986.03
2017-03-01T01:11:30.889Z,986.01
2017-03-01T01:12:30.906Z,986.11
2017-03-01T01:13:30.920Z,986.04
2017-03-01T01:14:30.934Z,986.02
2017-03-01T01:15:30.949Z,986.06
2017-03-01T01:16:30.964Z,986.05
2017-03-01T01:17:30.976Z,986.05
2017-03-01T01:18:30.991Z,986.05
2017-03-01T01:19:31.004Z,986.09
2017-03-01T01:20:31.022Z,986.1
2017-03-01T01:21:31.037Z,986.14
2017-03-01T01:22:31.050Z,986.14
2017-03-01T01:23:31.064Z,986.15
2017-03-01T01:24:31.082Z,986.22
2017-03-01T01:25:31.094Z,986.22
2017-03-01T01:26:31.108Z,986.24
2017-03-01T01:27:31.121Z,986.22
2017-03-01T01:28:31.137Z,986.22
2017-03-01T01:29:31.150Z,986.24
2017-03-01T01:30:31.164Z,986.26
2017-03-01T01:31:31.179Z,986.28
2017-03-01T01:32:31.192Z,986.3
2017-03-01T01:33:31.207Z,986.26
2017-03-01T01:34:31.222Z,986.31
2017-03-01T01:35:31.236Z,986.32
2017-03-01T01:36:31.251Z,986.26
2017-03-01T01:37:31.266Z,986.24
2017-03-01T01:38:31.280Z,986.24
2017-03-01T01:39:31.293Z,986.23
2017-03-01T01:40:31.307Z,986.23
2017-03-01T01:41:31.323Z,986.25
2017-03-01T01:42:31.338Z,986.23
2017-03-01T01:43:31.352Z,986.2
2017-03-01T01:44:31.365Z,986.23
2017-03-01T01:45:31.379Z,986.21
2017-03-01T01:46:31.394Z,986.2
2017-03-01T01:47:31.408Z,986.21
2017-03-01T01:48:31.423Z,986.21
2017-03-01T01:49:31.437Z,986.18
2017-03-01T01:50:31.451Z,986.16
2017-03-01T01:51:31.464Z,986.16
2017-03-01T01:52:31.479Z,986.15
2017-03-01T01:53:31.493Z,986.16
2017-03-01T01:54:31.509Z,986.2
2017-03-01T01:55:31.522Z,986.22
2017-03-01T01:56:31.538Z,986.23
2017-03-01T01:57:31.550Z,986.24
2017-03-01T01:58:31.565Z,986.21
2017-03-01T01:59:31.579Z,986.23
2017-03-01T02:00:31.593Z,986.22
2017-03-01T02:01:31.607Z,986.22
2017-03-01T02:02:31.621Z,986.17
2017-03-01T02:03:31.635Z,986.22
2017-03-01T02:04:31.650Z,986.21
2017-03-01T02:05:31.663Z,986.2
2017-03-01T02:06:31.677Z,986.19
2017-03-01T02:07:31.692Z,986.2
2017-03-01T02:08:31.706Z,986.22
2017-03-01T02:09:31.721Z,986.25
2017-03-01T02:10:31.733Z,986.21
2017-03-01T02:11:31.749Z,986.28
2017-03-01T02:12:31.763Z,986.25
2017-03-01T02:13:31.776Z,986.29
2017-03-01T02:14:31.791Z,986.29
2017-03-01T02:15:31.807Z,986.29
2017-03-01T02:16:31.821Z,986.29
2017-03-01T02:17:31.835Z,986.37
2017-03-01T02:18:31.847Z,986.4
2017-03-01T02:19:31.864Z,986.36
2017-03-01T02:20:31.875Z,986.33
2017-03-01T02:21:31.890Z,986.35
2017-03-01T02:22:31.905Z,986.39
2017-03-01T02:23:31.920Z,986.38
2017-03-01T02:24:31.933Z,986.41
2017-03-01T02:25:31.947Z,986.35
2017-03-01T02:26:31.962Z,986.37
2017-03-01T02:27:31.976Z,986.35
2017-03-01T02:28:31.988Z,986.36
2017-03-01T02:29:32.003Z,986.37
2017-03-01T02:30:32.019Z,986.39
2017-03-01T02:31:32.032Z,986.36
2017-03-01T02:32:32.046Z,986.27
2017-03-01T02:33:32.058Z,986.33
2017-03-01T02:34:32.074Z,986.29
2017-03-01T02:35:32.088Z,986.3
2017-03-01T02:36:32.101Z,986.29
2017-03-01T02:37:32.115Z,986.33
2017-03-01T02:38:32.132Z,986.32
2017-03-01T02:39:32.144Z,986.28
2017-03-01T02:40:32.159Z,986.28
2017-03-01T02:41:32.172Z,986.29
2017-03-01T02:42:32.185Z,986.26
2017-03-01T02:43:32.201Z,986.27
2017-03-01T02:44:32.215Z,986.29
2017-03-01T02:45:32.228Z,986.3
2017-03-01T02:46:32.242Z,986.32
2017-03-01T02:47:32.256Z,986.3
2017-03-01T02:48:32.271Z,986.31
2017-03-01T02:49:32.284Z,986.33
2017-03-01T02:50:32.298Z,986.35
2017-03-01T02:51:32.313Z,986.36
2017-03-01T02:52:32.328Z,986.38
2017-03-01T02:53:32.341Z,986.4
2017-03-01T02:54:32.354Z,986.41
2017-03-01T02:55:32.368Z,986.42
2017-03-01T02:56:32.384Z,986.46
2017-03-01T02:57:32.396Z,986.44
2017-03-01T02:58:32.410Z,986.41
2017-03-01T02:59:32.425Z,986.45
2017-03-01T03:00:32.440Z,986.46
2017-03-01T03:01:32.453Z,986.47
2017-03-01T03:02:32.467Z,986.46
2017-03-01T03:03:32.481Z,986.47
2017-03-01T03:04:32.496Z,986.46
2017-03-01T03:05:32.509Z,986.43
2017-03-01T03:06:32.522Z,986.42
2017-03-01T03:07:32.537Z,986.42
2017-03-01T03:08:32.667Z,986.44
2017-03-01T03:09:32.655Z,986.45
2017-03-01T03:10:32.684Z,986.39
2017-03-01T03:11:32.693Z,986.37
2017-03-01T03:12:32.702Z,986.43
2017-03-01T03:13:32.710Z,986.41
2017-03-01T03:14:32.733Z,986.4
2017-03-01T03:15:32.744Z,986.4
2017-03-01T03:16:32.750Z,986.41
2017-03-01T03:17:32.729Z,986.43
2017-03-01T03:18:32.738Z,986.41
2017-03-01T03:19:33.023Z,986.42
2017-03-01T03:20:32.744Z,986.45
2017-03-01T03:21:32.757Z,986.48
2017-03-01T03:22:32.825Z,986.47
2017-03-01T03:23:32.832Z,986.51
2017-03-01T03:24:32.946Z,986.45
2017-03-01T03:25:32.848Z,986.45
2017-03-01T03:26:32.858Z,986.47
2017-03-01T03:27:32.867Z,986.41
2017-03-01T03:28:32.874Z,986.41
2017-03-01T03:29:33.018Z,986.38
2017-03-01T03:30:33.023Z,986.32
2017-03-01T03:31:32.891Z,986.32
2017-03-01T03:32:32.971Z,986.35
2017-03-01T03:33:32.981Z,986.4
2017-03-01T03:34:32.987Z,986.42
2017-03-01T03:35:32.995Z,986.43
2017-03-01T03:36:33.005Z,986.43
2017-03-01T03:37:33.005Z,986.47
2017-03-01T03:38:33.013Z,986.42
2017-03-01T03:39:33.023Z,986.41
2017-03-01T03:40:33.098Z,986.47
2017-03-01T03:41:33.030Z,986.37
2017-03-01T03:42:33.024Z,986.37
2017-03-01T03:43:33.039Z,986.32
2017-03-01T03:44:33.056Z,986.39
2017-03-01T03:45:33.066Z,986.35
2017-03-01T03:46:33.081Z,986.36
2017-03-01T03:47:33.094Z,986.4
2017-03-01T03:48:33.107Z,986.39
2017-03-01T03:49:33.133Z,986.38
2017-03-01T03:50:33.136Z,986.42
2017-03-01T03:51:33.151Z,986.44
2017-03-01T03:52:33.164Z,986.42
2017-03-01T03:53:33.178Z,986.42
2017-03-01T03:54:33.192Z,986.4
2017-03-01T03:55:33.206Z,986.38
2017-03-01T03:56:33.223Z,986.34
2017-03-01T03:57:33.240Z,986.35
2017-03-01T03:58:33.247Z,986.3
2017-03-01T03:59:33.260Z,986.31
2017-03-01T04:00:33.276Z,986.38
2017-03-01T04:01:33.289Z,986.35
2017-03-01T04:02:33.303Z,986.36
2017-03-01T04:03:33.319Z,986.34
2017-03-01T04:04:33.329Z,986.35
2017-03-01T04:05:33.344Z,986.37
2017-03-01T04:06:33.358Z,986.37
2017-03-01T04:07:33.371Z,986.39
2017-03-01T04:08:33.385Z,986.37
2017-03-01T04:09:33.400Z,986.36
2017-03-01T04:10:33.411Z,986.34
2017-03-01T04:11:33.426Z,986.27
2017-03-01T04:12:33.441Z,986.27
2017-03-01T04:13:33.457Z,986.26
2017-03-01T04:14:33.468Z,986.23
2017-03-01T04:15:33.483Z,986.24
2017-03-01T04:16:33.496Z,986.26
2017-03-01T04:17:33.511Z,986.2
2017-03-01T04:18:33.523Z,986.23
2017-03-01T04:19:33.537Z,986.2
2017-03-01T04:20:33.551Z,986.21
2017-03-01T04:21:33.564Z,986.17
2017-03-01T04:22:33.577Z,986.18
2017-03-01T04:23:33.592Z,986.16
2017-03-01T04:24:33.606Z,986.09
2017-03-01T04:25:33.618Z,986.11
2017-03-01T04:26:33.634Z,986.15
2017-03-01T04:27:33.647Z,986.15
2017-03-01T04:28:33.662Z,986.16
2017-03-01T04:29:33.675Z,986.1
2017-03-01T04:30:33.690Z,986.17
2017-03-01T04:31:33.701Z,986.17
2017-03-01T04:32:33.715Z,986.12
2017-03-01T04:33:33.729Z,986.13
2017-03-01T04:34:33.744Z,986.17
2017-03-01T04:35:33.755Z,986.13
2017-03-01T04:36:33.771Z,986.09
2017-03-01T04:37:33.784Z,986.03
2017-03-01T04:38:33.798Z,986.01
2017-03-01T04:39:33.811Z,985.99
2017-03-01T04:40:33.824Z,986.04
2017-03-01T04:41:33.837Z,986.05
2017-03-01T04:42:33.854Z,986.06
2017-03-01T04:43:33.865Z,986.01
2017-03-01T04:44:33.880Z,986.03
2017-03-01T04:45:33.893Z,986
2017-03-01T04:46:33.908Z,986.04
2017-03-01T04:47:33.920Z,986.01
2017-03-01T04:48:33.936Z,985.95
2017-03-01T04:49:33.950Z,985.95
2017-03-01T04:50:33.963Z,985.93
2017-03-01T04:51:33.976Z,985.89
2017-03-01T04:52:33.990Z,985.93
2017-03-01T04:53:34.004Z,985.88
2017-03-01T04:54:34.016Z,985.9
2017-03-01T04:55:34.032Z,985.89
2017-03-01T04:56:34.046Z,985.83
2017-03-01T04:57:34.058Z,985.84
2017-03-01T04:58:34.073Z,985.79
2017-03-01T04:59:34.086Z,985.78
2017-03-01T05:00:34.101Z,985.81
2017-03-01T05:01:34.113Z,985.81
2017-03-01T05:02:34.127Z,985.81
2017-03-01T05:03:34.141Z,985.83
2017-03-01T05:04:34.156Z,985.82
2017-03-01T05:05:34.168Z,985.81
2017-03-01T05:06:34.182Z,985.76
2017-03-01T05:07:34.196Z,985.73
2017-03-01T05:08:34.212Z,985.67
2017-03-01T05:09:34.223Z,985.67
2017-03-01T05:10:34.237Z,985.66
2017-03-01T05:11:34.251Z,985.67
2017-03-01T05:12:34.265Z,985.64
2017-03-01T05:13:34.277Z,985.64
2017-03-01T05:14:34.291Z,985.66
2017-03-01T05:15:34.308Z,985.68
2017-03-01T05:16:34.319Z,985.76
2017-03-01T05:17:34.332Z,985.79
2017-03-01T05:18:34.346Z,985.66
2017-03-01T05:19:34.359Z,985.68
2017-03-01T05:20:34.374Z,985.66
2017-03-01T05:21:34.388Z,985.68
2017-03-01T05:22:34.400Z,985.7
2017-03-01T05:23:34.415Z,985.71
2017-03-01T05:24:34.430Z,985.68
2017-03-01T05:25:34.442Z,985.66
2017-03-01T05:26:34.455Z,985.74
2017-03-01T05:27:34.467Z,985.7
2017-03-01T05:28:34.482Z,985.79
2017-03-01T05:29:34.495Z,985.72
2017-03-01T05:30:34.510Z,985.68
2017-03-01T05:31:34.523Z,985.69
2017-03-01T05:32:34.536Z,985.67
2017-03-01T05:33:34.552Z,985.71
2017-03-01T05:34:34.563Z,985.61
2017-03-01T05:35:34.577Z,985.65
2017-03-01T05:36:34.591Z,985.69
2017-03-01T05:37:34.606Z,985.73
2017-03-01T05:38:34.617Z,985.73
2017-03-01T05:39:34.632Z,985.75
2017-03-01T05:40:34.645Z,985.81
2017-03-01T05:41:34.659Z,985.92
2017-03-01T05:42:34.672Z,985.82
2017-03-01T05:43:34.685Z,986
2017-03-01T05:44:34.700Z,985.9
2017-03-01T05:45:34.713Z,986.01
2017-03-01T05:46:34.727Z,986.02
2017-03-01T05:47:34.740Z,986.06
2017-03-01T05:48:34.754Z,986.09
2017-03-01T05:49:34.767Z,986.08
2017-03-01T05:50:34.782Z,986.19
2017-03-01T05:51:34.794Z,986.17
2017-03-01T05:52:34.808Z,986.18
2017-03-01T05:53:34.820Z,986.17
2017-03-01T05:54:34.835Z,986.15
2017-03-01T05:55:34.848Z,986.19
2017-03-01T05:56:34.862Z,986.23
2017-03-01T05:57:34.875Z,986.32
2017-03-01T05:58:34.891Z,986.34
2017-03-01T05:59:34.971Z,986.37
2017-03-01T06:00:34.916Z,986.46
2017-03-01T06:01:34.933Z,986.48
2017-03-01T06:02:34.945Z,986.51
2017-03-01T06:03:34.956Z,986.53
2017-03-01T06:04:34.977Z,986.48
2017-03-01T06:05:34.982Z,986.45
2017-03-01T06:06:34.998Z,986.47
2017-03-01T06:07:35.011Z,986.52
2017-03-01T06:08:35.023Z,986.57
2017-03-01T06:09:35.037Z,986.66
2017-03-01T06:10:35.052Z,986.62
2017-03-01T06:11:35.064Z,986.69
2017-03-01T06:12:35.079Z,986.69
2017-03-01T06:13:35.092Z,986.73
2017-03-01T06:14:35.106Z,986.77
2017-03-01T06:15:35.118Z,986.73
2017-03-01T06:16:35.133Z,986.73
2017-03-01T06:17:35.145Z,986.78
2017-03-01T06:18:35.159Z,986.81
2017-03-01T06:19:35.173Z,986.86
2017-03-01T06:20:35.186Z,986.86
2017-03-01T06:21:35.200Z,986.82
2017-03-01T06:22:35.213Z,986.9
2017-03-01T06:23:35.227Z,986.98
2017-03-01T06:24:35.239Z,987.01
2017-03-01T06:25:35.263Z,986.94
2017-03-01T06:26:35.283Z,986.97
2017-03-01T06:27:35.292Z,986.98
2017-03-01T06:28:35.294Z,987.02
2017-03-01T06:29:35.313Z,986.98
2017-03-01T06:30:35.321Z,986.99
2017-03-01T06:31:35.336Z,986.99
2017-03-01T06:32:35.348Z,987
2017-03-01T06:33:35.365Z,986.99
2017-03-01T06:34:35.375Z,987.04
2017-03-01T06:35:35.388Z,987.04
2017-03-01T06:36:35.401Z,987.04
2017-03-01T06:37:35.415Z,987.09
2017-03-01T06:38:35.429Z,987.11
2017-03-01T06:39:35.443Z,987.11
2017-03-01T06:40:35.456Z,987.14
2017-03-01T06:41:35.470Z,987.13
2017-03-01T06:42:35.487Z,987.09
2017-03-01T06:43:35.495Z,987.11
2017-03-01T06:44:35.510Z,987.13
2017-03-01T06:45:35.527Z,987.17
2017-03-01T06:46:35.537Z,987.14
2017-03-01T06:47:35.549Z,987.17
2017-03-01T06:48:35.563Z,987.2
2017-03-01T06:49:35.577Z,987.19
2017-03-01T06:50:35.591Z,987.19
2017-03-01T06:51:35.603Z,987.19
2017-03-01T06:52:35.618Z,987.25
2017-03-01T06:53:35.632Z,987.27
2017-03-01T06:54:35.645Z,987.27
2017-03-01T06:55:35.655Z,987.32
2017-03-01T06:56:35.674Z,987.32
2017-03-01T06:57:35.763Z,987.32
2017-03-01T06:58:35.721Z,987.33
2017-03-01T06:59:35.711Z,987.36
2017-03-01T07:00:35.826Z,987.34
2017-03-01T07:01:35.788Z,987.37
2017-03-01T07:02:35.787Z,987.39
2017-03-01T07:03:35.795Z,987.43
2017-03-01T07:04:35.779Z,987.44
2017-03-01T07:05:35.792Z,987.51
2017-03-01T07:06:35.823Z,987.51
2017-03-01T07:07:35.889Z,987.55
2017-03-01T07:08:35.839Z,987.62
2017-03-01T07:09:35.846Z,987.61
2017-03-01T07:10:35.910Z,987.64
2017-03-01T07:11:35.875Z,987.66
2017-03-01T07:12:35.887Z,987.65
2017-03-01T07:13:35.901Z,987.6
2017-03-01T07:14:35.913Z,987.55
2017-03-01T07:15:35.931Z,987.68
2017-03-01T07:16:35.943Z,987.69
2017-03-01T07:17:35.958Z,987.71
2017-03-01T07:18:35.969Z,987.71
2017-03-01T07:19:35.985Z,987.69
2017-03-01T07:20:35.996Z,987.74
2017-03-01T07:21:36.010Z,987.7
2017-03-01T07:22:36.024Z,987.66
2017-03-01T07:23:36.038Z,987.7
2017-03-01T07:24:36.050Z,987.68
2017-03-01T07:25:36.064Z,987.71
2017-03-01T07:26:36.078Z,987.72
2017-03-01T07:27:36.092Z,987.74
2017-03-01T07:28:36.105Z,987.73
2017-03-01T07:29:36.119Z,987.76
2017-03-01T07:30:36.132Z,987.77
2017-03-01T07:31:36.144Z,987.71
2017-03-01T07:32:36.159Z,987.76
2017-03-01T07:33:36.176Z,987.73
2017-03-01T07:34:36.187Z,987.72
2017-03-01T07:35:36.200Z,987.72
2017-03-01T07:36:36.216Z,987.73
2017-03-01T07:37:36.227Z,987.73
2017-03-01T07:38:36.242Z,987.72
2017-03-01T07:39:36.255Z,987.76
2017-03-01T07:40:36.268Z,987.78
2017-03-01T07:41:36.283Z,987.75
2017-03-01T07:42:36.295Z,987.83
2017-03-01T07:43:36.308Z,987.8
2017-03-01T07:44:36.322Z,987.77
2017-03-01T07:45:36.337Z,987.83
2017-03-01T07:46:36.349Z,987.9
2017-03-01T07:47:36.364Z,987.87
2017-03-01T07:48:36.377Z,987.84
2017-03-01T07:49:36.394Z,987.89
2017-03-01T07:50:36.406Z,987.92
2017-03-01T07:51:36.418Z,987.91
2017-03-01T07:52:36.434Z,987.97
2017-03-01T07:53:36.461Z,987.98
2017-03-01T07:54:36.459Z,987.98
2017-03-01T07:55:36.474Z,988
2017-03-01T07:56:36.488Z,988.01
2017-03-01T07:57:36.502Z,988.02
2017-03-01T07:58:36.515Z,988.02
2017-03-01T07:59:36.528Z,987.98
2017-03-01T08:00:36.545Z,987.98
2017-03-01T08:01:36.557Z,987.96
2017-03-01T08:02:36.572Z,987.99
2017-03-01T08:03:36.586Z,987.98
2017-03-01T08:04:36.600Z,987.94
2017-03-01T08:05:36.613Z,987.95
2017-03-01T08:06:36.627Z,987.91
2017-03-01T08:07:36.641Z,987.89
2017-03-01T08:08:36.655Z,987.9
2017-03-01T08:09:36.671Z,987.9
2017-03-01T08:10:36.683Z,987.9
2017-03-01T08:11:36.816Z,987.9
2017-03-01T08:12:36.710Z,987.89
2017-03-01T08:13:36.725Z,987.92
2017-03-01T08:14:36.739Z,987.92
2017-03-01T08:15:36.801Z,987.9
2017-03-01T08:16:36.766Z,987.91
2017-03-01T08:17:36.781Z,987.91
2017-03-01T08:18:36.795Z,987.91
2017-03-01T08:19:36.808Z,987.92
2017-03-01T08:20:36.822Z,987.93
2017-03-01T08:21:36.837Z,987.91
2017-03-01T08:22:36.850Z,987.91
2017-03-01T08:23:36.864Z,987.91
2017-03-01T08:24:36.879Z,987.86
2017-03-01T08:25:36.943Z,987.92
2017-03-01T08:26:36.905Z,987.92
2017-03-01T08:27:36.921Z,987.95
2017-03-01T08:28:36.935Z,987.99
2017-03-01T08:29:36.949Z,987.96
2017-03-01T08:30:36.964Z,987.98
2017-03-01T08:31:36.977Z,987.99
2017-03-01T08:32:36.992Z,987.98
2017-03-01T08:33:37.004Z,988.03
2017-03-01T08:34:37.020Z,988.05
2017-03-01T08:35:37.035Z,988.05
2017-03-01T08:36:37.048Z,987.99
2017-03-01T08:37:37.063Z,987.97
2017-03-01T08:38:37.075Z,987.95
2017-03-01T08:39:37.092Z,988.02
2017-03-01T08:40:37.106Z,988.05
2017-03-01T08:41:37.118Z,988.05
2017-03-01T08:42:37.132Z,987.98
2017-03-01T08:43:37.147Z,988.06
2017-03-01T08:44:37.160Z,988.02
2017-03-01T08:45:37.177Z,988.07
2017-03-01T08:46:37.189Z,987.99
2017-03-01T08:47:37.207Z,987.98
2017-03-01T08:48:37.218Z,988
2017-03-01T08:49:37.236Z,987.98
2017-03-01T08:50:37.248Z,987.98
2017-03-01T08:51:37.263Z,987.95
2017-03-01T08:52:37.395Z,987.94
2017-03-01T08:53:37.290Z,987.93
2017-03-01T08:54:37.306Z,988.04
2017-03-01T08:55:37.321Z,987.93
2017-03-01T08:56:37.335Z,987.96
2017-03-01T08:57:37.349Z,987.95
2017-03-01T08:58:37.364Z,987.91
2017-03-01T08:59:37.377Z,987.99
2017-03-01T09:00:37.391Z,987.98
2017-03-01T09:01:37.407Z,987.92
2017-03-01T09:02:37.422Z,987.94
2017-03-01T09:03:37.436Z,987.98
2017-03-01T09:04:37.451Z,987.95
2017-03-01T09:05:37.464Z,987.96
2017-03-01T09:06:37.478Z,987.93
2017-03-01T09:07:37.493Z,987.93
2017-03-01T09:08:37.508Z,987.95
2017-03-01T09:09:37.523Z,987.97
2017-03-01T09:10:37.537Z,987.99
2017-03-01T09:11:37.552Z,987.94
2017-03-01T09:12:37.568Z,987.97
2017-03-01T09:13:37.582Z,987.92
2017-03-01T09:14:37.595Z,988.03
2017-03-01T09:15:37.609Z,987.95
2017-03-01T09:16:37.626Z,987.97
2017-03-01T09:17:37.638Z,987.93
2017-03-01T09:18:37.737Z,987.97
2017-03-01T09:19:37.669Z,987.97
2017-03-01T09:20:37.785Z,987.98
2017-03-01T09:21:37.763Z,988.02
2017-03-01T09:22:37.713Z,988.05
2017-03-01T09:23:37.827Z,987.99
2017-03-01T09:24:37.743Z,988.03
2017-03-01T09:25:37.756Z,988.04
2017-03-01T09:26:37.771Z,987.99
2017-03-01T09:27:37.786Z,988.02
2017-03-01T09:28:37.800Z,988.04
2017-03-01T09:29:37.815Z,987.96
2017-03-01T09:30:37.829Z,987.98
2017-03-01T09:31:37.845Z,988.07
2017-03-01T09:32:37.860Z,987.97
2017-03-01T09:33:37.874Z,988.02
2017-03-01T09:34:37.889Z,988.01
2017-03-01T09:35:37.904Z,988.09
2017-03-01T09:36:37.921Z,988.08
2017-03-01T09:37:37.935Z,988.08
2017-03-01T09:38:37.949Z,988.13
2017-03-01T09:39:37.964Z,988.1
2017-03-01T09:40:37.979Z,988.1
2017-03-01T09:41:37.993Z,988.03
2017-03-01T09:42:38.009Z,988.12
2017-03-01T09:43:38.022Z,988.11
2017-03-01T09:44:38.039Z,988.12
2017-03-01T09:45:38.054Z,988.07
2017-03-01T09:46:38.066Z,988.1
2017-03-01T09:47:38.082Z,988.09
2017-03-01T09:48:38.098Z,988.09
2017-03-01T09:49:38.113Z,988.07
2017-03-01T09:50:38.125Z,988.13
2017-03-01T09:51:38.140Z,988.08
2017-03-01T09:52:38.157Z,988.14
2017-03-01T09:53:38.170Z,988.12
2017-03-01T09:54:38.185Z,988.14
2017-03-01T09:55:38.204Z,988.2
2017-03-01T09:56:38.216Z,988.18
2017-03-01T09:57:38.230Z,988.19
2017-03-01T09:58:38.249Z,988.2
2017-03-01T09:59:38.260Z,988.21
2017-03-01T10:00:38.275Z,988.22
2017-03-01T10:01:38.289Z,988.26
2017-03-01T10:02:38.304Z,988.31
2017-03-01T10:03:38.320Z,988.24
2017-03-01T10:04:38.335Z,988.25
2017-03-01T10:05:38.350Z,988.35
2017-03-01T10:06:38.364Z,988.31
2017-03-01T10:07:38.382Z,988.26
2017-03-01T10:08:38.396Z,988.32
2017-03-01T10:09:38.410Z,988.32
2017-03-01T10:10:38.424Z,988.32
2017-03-01T10:11:38.440Z,988.29
2017-03-01T10:12:38.452Z,988.32
2017-03-01T10:13:38.471Z,988.28
2017-03-01T10:14:38.486Z,988.24
2017-03-01T10:15:38.500Z,988.28
2017-03-01T10:16:38.514Z,988.27
2017-03-01T10:17:38.531Z,988.27
2017-03-01T10:18:38.544Z,988.33
2017-03-01T10:19:38.560Z,988.25
2017-03-01T10:20:38.574Z,988.31
2017-03-01T10:21:38.588Z,988.33
2017-03-01T10:22:38.604Z,988.34
2017-03-01T10:23:38.618Z,988.35
2017-03-01T10:24:38.635Z,988.4
2017-03-01T10:25:38.650Z,988.4
2017-03-01T10:26:38.716Z,988.42
2017-03-01T10:27:38.679Z,988.36
2017-03-01T10:28:38.695Z,988.43
2017-03-01T10:29:38.710Z,988.45
2017-03-01T10:30:38.724Z,988.41
2017-03-01T10:31:38.740Z,988.41
2017-03-01T10:32:38.756Z,988.43
2017-03-01T10:33:38.771Z,988.44
2017-03-01T10:34:38.787Z,988.43
2017-03-01T10:35:38.800Z,988.62
2017-03-01T10:36:38.815Z,988.4
2017-03-01T10:37:38.832Z,988.45
2017-03-01T10:38:38.845Z,988.46
2017-03-01T10:39:38.863Z,988.48
2017-03-01T10:40:38.876Z,988.42
2017-03-01T10:41:38.892Z,988.49
2017-03-01T10:42:38.907Z,988.5
2017-03-01T10:43:38.923Z,988.51
2017-03-01T10:44:38.938Z,988.4
2017-03-01T10:45:38.953Z,988.55
2017-03-01T10:46:38.967Z,988.48
2017-03-01T10:47:38.984Z,988.51
2017-03-01T10:48:39.005Z,988.53
2017-03-01T10:49:39.024Z,988.45
2017-03-01T10:50:39.040Z,988.49
2017-03-01T10:51:39.054Z,988.52
2017-03-01T10:52:39.067Z,988.54
2017-03-01T10:53:39.079Z,988.53
2017-03-01T10:54:39.089Z,988.58
2017-03-01T10:55:39.117Z,988.52
2017-03-01T10:56:39.120Z,988.58
2017-03-01T10:57:39.140Z,988.61
2017-03-01T10:58:39.161Z,988.57
2017-03-01T10:59:39.166Z,988.7
2017-03-01T11:00:39.182Z,988.57
2017-03-01T11:01:39.208Z,988.61
2017-03-01T11:02:39.222Z,988.6
2017-03-01T11:03:39.227Z,988.65
2017-03-01T11:04:39.242Z,988.7
2017-03-01T11:05:39.268Z,988.68
2017-03-01T11:06:39.274Z,988.7
2017-03-01T11:07:39.288Z,988.72
2017-03-01T11:08:39.312Z,988.73
2017-03-01T11:09:39.329Z,988.69
2017-03-01T11:10:39.335Z,988.72
2017-03-01T11:11:39.357Z,988.68
2017-03-01T11:12:39.366Z,988.63
2017-03-01T11:13:39.382Z,988.74
2017-03-01T11:14:39.397Z,988.67
2017-03-01T11:15:39.412Z,988.66
2017-03-01T11:16:39.428Z,988.69
2017-03-01T11:17:39.450Z,988.67
2017-03-01T11:18:39.458Z,988.56
2017-03-01T11:19:39.474Z,988.71
2017-03-01T11:20:39.489Z,988.71
2017-03-01T11:21:39.503Z,988.73
2017-03-01T11:22:39.520Z,988.7
2017-03-01T11:23:39.536Z,988.74
2017-03-01T11:24:39.552Z,988.73
2017-03-01T11:25:39.565Z,988.71
2017-03-01T11:26:39.582Z,988.66
2017-03-01T11:27:39.597Z,988.64
2017-03-01T11:28:39.612Z,988.69
2017-03-01T11:29:39.628Z,988.66
2017-03-01T11:30:39.643Z,988.65
2017-03-01T11:31:39.810Z,988.65
2017-03-01T11:32:39.674Z,988.62
2017-03-01T11:33:39.688Z,988.67
2017-03-01T11:34:39.708Z,988.66
2017-03-01T11:35:39.722Z,988.64
2017-03-01T11:36:39.736Z,988.63
2017-03-01T11:37:39.752Z,988.68
2017-03-01T11:38:39.768Z,988.65
2017-03-01T11:39:39.783Z,988.66
2017-03-01T11:40:39.798Z,988.68
2017-03-01T11:41:39.813Z,988.66
2017-03-01T11:42:39.829Z,988.7
2017-03-01T11:43:39.843Z,988.68
2017-03-01T11:44:39.860Z,988.77
2017-03-01T11:45:39.887Z,988.65
2017-03-01T11:46:39.892Z,988.72
2017-03-01T11:47:39.905Z,988.67
2017-03-01T11:48:39.921Z,988.76
2017-03-01T11:49:39.937Z,988.72
2017-03-01T11:50:39.953Z,988.7
2017-03-01T11:51:39.968Z,988.68
2017-03-01T11:52:39.984Z,988.68
2017-03-01T11:53:40.002Z,988.67
2017-03-01T11:54:40.015Z,988.64
2017-03-01T11:55:40.031Z,988.72
2017-03-01T11:56:40.048Z,988.72
2017-03-01T11:57:40.064Z,988.74
2017-03-01T11:58:40.077Z,988.7
2017-03-01T11:59:40.095Z,988.72
2017-03-01T12:00:40.112Z,988.76
2017-03-01T12:01:40.125Z,988.74
2017-03-01T12:02:40.141Z,988.77
2017-03-01T12:03:40.157Z,988.73
2017-03-01T12:04:40.173Z,988.8
2017-03-01T12:05:40.188Z,988.79
2017-03-01T12:06:40.204Z,988.78
2017-03-01T12:07:40.219Z,988.78
2017-03-01T12:08:40.236Z,988.81
2017-03-01T12:09:40.251Z,988.82
2017-03-01T12:10:40.266Z,988.8
2017-03-01T12:11:40.283Z,988.8
2017-03-01T12:12:40.299Z,988.83
2017-03-01T12:13:40.314Z,988.82
2017-03-01T12:14:40.442Z,988.79
2017-03-01T12:15:40.345Z,988.77
2017-03-01T12:16:40.361Z,988.82
2017-03-01T12:17:40.376Z,988.8
2017-03-01T12:18:40.392Z,988.8
2017-03-01T12:19:40.408Z,988.81
2017-03-01T12:20:40.424Z,988.74
2017-03-01T12:21:40.440Z,988.77
2017-03-01T12:22:40.456Z,988.79
2017-03-01T12:23:40.472Z,988.72
2017-03-01T12:24:40.487Z,988.71
2017-03-01T12:25:40.518Z,988.75
2017-03-01T12:26:40.520Z,988.77
2017-03-01T12:27:40.535Z,988.75
2017-03-01T12:28:40.550Z,988.76
2017-03-01T12:29:40.566Z,988.75
2017-03-01T12:30:40.583Z,988.74
2017-03-01T12:31:40.598Z,988.74